Time;durP1;ratioP1;P1;durP2;ratioP2;P2;SDS_P1;SDS_P2;PMS_P1;PMS_P2;Temp;Humidity;BMP_temperature;BMP_pressure;BME280_temperature;BME280_humidity;BME280_pressure;Samples;Min_cycle;Max_cycle;Signal;HPM_P1;HPM_P2
2021/08/22 00:02:01;;;;;;;48.75;31.80;;;;;;;20.61;100.00;101367.13;5110512;27;20372;-60
2021/08/22 00:04:28;;;;;;;46.93;31.80;;;;;;;20.48;100.00;101368.72;5102399;27;20079;-62
2021/08/22 00:06:55;;;;;;;44.15;30.67;;;;;;;20.48;100.00;101371.38;5107254;27;20304;-61
2021/08/22 00:09:21;;;;;;;46.15;32.55;;;;;;;20.57;100.00;101371.19;5102595;27;20120;-62
2021/08/22 00:11:48;;;;;;;46.25;32.40;;;;;;;20.65;100.00;101363.88;5107755;27;20083;-62
2021/08/22 00:14:14;;;;;;;45.88;32.25;;;;;;;20.61;100.00;101369.81;5093674;27;20142;-61
2021/08/22 00:16:41;;;;;;;46.00;31.88;;;;;;;20.64;100.00;101364.06;5108945;27;20131;-61
2021/08/22 00:19:08;;;;;;;45.35;32.17;;;;;;;20.56;100.00;101354.34;5110721;27;20058;-61
2021/08/22 00:21:34;;;;;;;50.08;32.42;;;;;;;20.62;100.00;101358.09;5101174;27;20082;-61
2021/08/22 00:24:01;;;;;;;49.05;32.53;;;;;;;20.64;100.00;101359.56;5108636;27;20093;-61
2021/08/22 00:26:28;;;;;;;55.50;34.78;;;;;;;20.69;100.00;101351.78;5094534;28;20707;-61
2021/08/22 00:28:54;;;;;;;50.38;32.58;;;;;;;20.83;100.00;101354.47;5110483;27;20487;-61
2021/08/22 00:31:20;;;;;;;48.15;33.13;;;;;;;20.80;100.00;101349.56;5102760;27;20126;-61
2021/08/22 00:33:47;;;;;;;48.00;33.38;;;;;;;20.92;100.00;101355.94;5104017;28;20055;-61
2021/08/22 00:36:13;;;;;;;46.58;31.75;;;;;;;20.91;100.00;101357.81;5083662;28;20085;-61
2021/08/22 00:38:40;;;;;;;51.15;34.58;;;;;;;20.94;99.42;101361.91;5093649;28;20527;-62
2021/08/22 00:41:06;;;;;;;48.72;33.42;;;;;;;20.90;99.64;101363.34;5103029;28;20130;-62
2021/08/22 00:43:33;;;;;;;45.45;31.75;;;;;;;21.03;98.40;101362.53;5100378;28;20082;-62
2021/08/22 00:45:59;;;;;;;51.75;32.92;;;;;;;21.03;97.37;101360.69;5106204;28;20135;-61
2021/08/22 00:48:30;;;;;;;51.90;32.35;;;;;;;20.88;98.13;101362.72;5102747;28;20055;-61
2021/08/22 00:50:58;;;;;;;45.47;31.15;;;;;;;20.96;98.49;101361.72;5107400;28;20130;-60
2021/08/22 00:53:24;;;;;;;48.22;33.15;;;;;;;21.25;96.59;101358.66;5104447;28;20771;-62
2021/08/22 00:55:57;;;;;;;42.67;29.65;;;;;;;21.45;93.83;101358.69;5109260;27;20073;-62
2021/08/22 00:58:24;;;;;;;50.42;32.28;;;;;;;21.55;92.73;101358.28;5111855;27;20048;-62
2021/08/22 01:00:53;;;;;;;47.78;31.95;;;;;;;21.48;92.43;101354.78;5104901;27;20077;-61
2021/08/22 01:03:34;;;;;;;50.88;33.38;;;;;;;21.30;nan;101356.19;5108485;27;20465;-62
2021/08/22 01:06:09;;;;;;;46.13;30.02;;;;;;;21.23;93.69;101350.03;5098677;27;20140;-61
2021/08/22 01:08:40;;;;;;;56.65;36.33;;;;;;;20.93;99.24;101362.91;5111835;27;20181;-61
2021/08/22 01:11:15;;;;;;;53.78;31.55;;;;;;;21.07;97.87;101353.09;5101449;27;20079;-60
2021/08/22 01:14:01;;;;;;;57.20;35.20;;;;;;;20.97;97.81;101347.34;5109494;27;20096;-61
2021/08/22 01:16:33;;;;;;;56.80;34.92;;;;;;;21.08;96.46;101352.06;5100652;27;20105;-60
2021/08/22 01:19:05;;;;;;;56.88;36.08;;;;;;;20.88;97.43;101360.84;5108654;27;20132;-62
2021/08/22 01:21:32;;;;;;;56.03;34.78;;;;;;;20.66;99.58;101348.69;5112330;27;20133;-62
2021/08/22 01:24:03;;;;;;;56.22;34.95;;;;;;;20.88;97.06;101355.53;5106602;27;20048;-60
2021/08/22 01:26:34;;;;;;;63.22;38.70;;;;;;;21.05;96.81;101349.81;5109747;27;20456;-60
2021/08/22 01:29:02;;;;;;;63.72;38.53;;;;;;;20.84;97.65;101356.97;5085460;28;20095;-60
2021/08/22 01:31:35;;;;;;;62.27;39.43;;;;;;;20.55;100.00;101355.41;5105861;27;20083;-61
2021/08/22 01:34:02;;;;;;;65.47;39.95;;;;;;;20.73;98.78;101361.00;5098948;27;20043;-61
2021/08/22 01:36:30;;;;;;;69.43;41.22;;;;;;;20.63;98.90;101359.75;5112370;27;20135;-61
2021/08/22 01:38:56;;;;;;;68.93;43.70;;;;;;;20.62;100.00;101352.78;5106219;27;20142;-62
2021/08/22 01:41:24;;;;;;;68.28;42.67;;;;;;;20.35;100.00;101350.81;5110948;27;20044;-61
2021/08/22 01:43:53;;;;;;;70.03;42.95;;;;;;;20.57;100.00;101355.19;5111054;27;20496;-62
2021/08/22 01:46:30;;;;;;;74.20;43.53;;;;;;;20.72;98.90;101355.91;5095230;27;20150;-61
2021/08/22 01:48:59;;;;;;;63.43;39.63;;;;;;;20.67;98.52;101359.16;5107096;28;20061;-62
2021/08/22 01:51:28;;;;;;;58.60;39.05;;;;;;;20.58;98.63;101362.16;5100097;28;20449;-60
2021/08/22 01:53:59;;;;;;;62.15;40.03;;;;;;;20.53;100.00;101354.78;5109178;28;20478;-61
2021/08/22 01:56:30;;;;;;;59.00;37.30;;;;;;;20.51;100.00;101348.81;5104108;28;20134;-61
2021/08/22 01:58:58;;;;;;;60.70;37.78;;;;;;;20.61;99.93;101353.81;5102200;28;20131;-61
2021/08/22 02:01:24;;;;;;;59.40;38.67;;;;;;;20.73;98.71;101352.19;5105810;28;20082;-62
2021/08/22 02:03:58;;;;;;;59.47;37.80;;;;;;;20.61;99.43;101354.63;5101702;28;20063;-61
2021/08/22 02:06:57;;;;;;;51.42;32.25;;;;;;;20.69;97.22;101351.78;5108511;28;20043;-58
2021/08/22 02:09:53;;;;;;;57.47;36.17;;;;;;;20.66;98.37;101357.53;5086424;28;20474;-60
2021/08/22 02:12:20;;;;;;;55.70;34.95;;;;;;;20.29;100.00;101354.25;5100459;28;20083;-62
2021/08/22 02:14:58;;;;;;;59.67;36.42;;;;;;;20.23;100.00;101354.22;5099783;28;20083;-62
2021/08/22 02:17:45;;;;;;;52.00;33.45;;;;;;;20.22;100.00;101356.06;5106699;28;20044;-62
2021/08/22 02:20:12;;;;;;;44.33;27.25;;;;;;;20.02;100.00;101350.63;5102709;28;20135;-62
2021/08/22 02:22:42;;;;;;;49.75;30.35;;;;;;;20.09;100.00;101353.31;5110698;28;20154;-62
2021/08/22 02:25:09;;;;;;;46.42;28.58;;;;;;;20.47;99.83;101344.91;5100434;27;20171;-62
2021/08/22 02:27:36;;;;;;;43.53;25.95;;;;;;;20.27;98.58;101350.97;5079394;28;20094;-61
2021/08/22 02:30:03;;;;;;;41.25;25.48;;;;;;;20.23;98.45;101352.41;5100424;28;20075;-61
2021/08/22 02:32:30;;;;;;;40.38;25.50;;;;;;;20.30;98.05;101350.56;5110500;28;20058;-60
2021/08/22 02:34:56;;;;;;;43.47;24.73;;;;;;;20.32;97.89;101343.19;5108854;28;20082;-62
2021/08/22 02:37:23;;;;;;;46.88;27.27;;;;;;;20.27;98.12;101347.50;5101840;28;20486;-60
2021/08/22 02:39:50;;;;;;;41.30;24.73;;;;;;;20.30;97.81;101344.44;5102942;28;20082;-61
2021/08/22 02:42:17;;;;;;;45.50;26.85;;;;;;;20.09;99.34;101351.50;5100511;28;20492;-61
2021/08/22 02:44:44;;;;;;;47.08;27.65;;;;;;;20.18;99.07;101354.81;5107563;28;20056;-60
2021/08/22 02:47:11;;;;;;;43.95;24.38;;;;;;;20.17;98.64;101355.00;5068780;27;1083965;-60
2021/08/22 02:49:37;;;;;;;39.08;24.00;;;;;;;20.23;98.04;101356.88;5107461;28;20131;-60
2021/08/22 02:52:04;;;;;;;48.33;27.13;;;;;;;20.14;98.39;101351.72;5088712;27;20043;-57
2021/08/22 02:54:30;;;;;;;49.53;26.00;;;;;;;20.18;97.80;101346.81;5095138;27;20138;-61
2021/08/22 02:56:57;;;;;;;46.63;28.23;;;;;;;20.09;98.60;101346.19;5110652;27;20293;-60
2021/08/22 02:59:23;;;;;;;47.75;28.27;;;;;;;20.18;97.46;101336.19;5101343;27;20071;-62
2021/08/22 03:01:50;;;;;;;42.63;25.92;;;;;;;20.37;96.92;101347.13;5109505;27;20135;-62
2021/08/22 03:04:17;;;;;;;45.03;27.35;;;;;;;20.18;96.61;101346.81;5080574;28;20134;-62
2021/08/22 03:06:43;;;;;;;41.97;26.52;;;;;;;20.08;97.41;101344.53;5107632;27;20186;-62
2021/08/22 03:09:10;;;;;;;42.20;25.63;;;;;;;20.30;95.81;101344.44;5100528;27;20079;-62
2021/08/22 03:11:37;;;;;;;45.10;27.27;;;;;;;20.28;95.20;101347.28;5101829;27;20051;-61
2021/08/22 03:14:05;;;;;;;45.30;26.05;;;;;;;20.08;96.68;101339.19;5109551;27;20130;-62
2021/08/22 03:16:32;;;;;;;49.88;28.30;;;;;;;20.09;97.53;101350.66;5105347;27;20154;-61
2021/08/22 03:18:59;;;;;;;50.93;28.17;;;;;;;20.13;96.89;101341.25;5106649;28;20051;-62
2021/08/22 03:21:25;;;;;;;45.97;27.27;;;;;;;20.10;96.34;101347.81;5093309;27;20148;-56
2021/08/22 03:23:52;;;;;;;53.50;30.05;;;;;;;19.88;97.59;101347.06;5102405;27;20134;-59
2021/08/22 03:26:18;;;;;;;54.55;29.02;;;;;;;19.92;97.62;101337.69;5107281;27;20078;-59
2021/08/22 03:28:44;;;;;;;53.78;31.17;;;;;;;19.91;97.55;101336.00;5106112;27;20177;-57
2021/08/22 03:31:11;;;;;;;53.42;29.85;;;;;;;20.03;96.61;101341.66;5105231;27;20044;-58
2021/08/22 03:33:37;;;;;;;57.00;29.75;;;;;;;19.94;97.86;101335.63;5101604;27;20154;-60
2021/08/22 03:36:04;;;;;;;64.97;33.35;;;;;;;20.02;96.90;101339.16;5104168;27;20079;-61
2021/08/22 03:38:31;;;;;;;62.85;33.30;;;;;;;19.76;98.90;101335.34;5095808;27;20051;-60
2021/08/22 03:40:57;;;;;;;56.38;33.88;;;;;;;19.23;100.00;101327.72;5110131;27;20081;-61
2021/08/22 03:43:24;;;;;;;67.10;34.72;;;;;;;19.19;100.00;101325.63;5096494;27;20146;-62
2021/08/22 03:45:50;;;;;;;67.20;36.95;;;;;;;19.31;100.00;101332.91;5109612;27;20079;-62
2021/08/22 03:48:17;;;;;;;80.38;38.20;;;;;;;19.54;100.00;101330.03;5105556;27;20059;-62
2021/08/22 03:50:43;;;;;;;73.20;38.15;;;;;;;19.88;97.83;101327.63;5098331;27;20574;-62
2021/08/22 03:53:09;;;;;;;67.18;34.20;;;;;;;19.65;99.18;101325.19;5107210;27;20126;-61
2021/08/22 03:55:36;;;;;;;76.13;39.35;;;;;;;19.56;100.00;101335.97;5104505;27;20134;-62
2021/08/22 03:58:03;;;;;;;72.63;35.65;;;;;;;19.57;100.00;101336.78;5109941;27;20079;-62
2021/08/22 04:00:29;;;;;;;76.03;38.28;;;;;;;19.53;100.00;101335.53;5102196;27;20147;-60
2021/08/22 04:02:56;;;;;;;67.65;36.28;;;;;;;19.47;100.00;101331.81;5103283;27;20043;-60
2021/08/22 04:05:23;;;;;;;78.77;40.63;;;;;;;19.47;100.00;101334.47;5102016;27;20449;-60
2021/08/22 04:07:52;;;;;;;86.28;40.70;;;;;;;19.38;100.00;101330.28;5099542;27;20055;-57
2021/08/22 04:10:19;;;;;;;81.10;39.55;;;;;;;19.42;100.00;101331.56;5105370;27;20070;-57
2021/08/22 04:12:45;;;;;;;85.10;41.92;;;;;;;19.52;100.00;101334.72;5104046;27;20541;-60
2021/08/22 04:15:12;;;;;;;78.22;38.10;;;;;;;19.46;100.00;101338.13;5106929;27;20142;-61
2021/08/22 04:17:38;;;;;;;82.28;38.45;;;;;;;19.45;100.00;101343.66;5098386;27;20105;-59
2021/08/22 04:20:05;;;;;;;81.78;39.83;;;;;;;19.64;100.00;101340.34;5103650;27;20713;-62
2021/08/22 04:22:35;;;;;;;87.20;42.00;;;;;;;19.65;99.82;101341.16;5102467;27;20142;-62
2021/08/22 04:25:05;;;;;;;87.90;40.90;;;;;;;19.39;100.00;101334.59;5109839;27;20073;-61
2021/08/22 04:27:33;;;;;;;86.80;42.13;;;;;;;19.59;100.00;101336.59;5103959;27;20079;-62
2021/08/22 04:29:59;;;;;;;94.93;43.23;;;;;;;19.54;99.90;101337.16;5098723;27;20135;-62
2021/08/22 04:32:27;;;;;;;91.00;43.63;;;;;;;19.56;100.00;101340.47;5099755;28;20058;-62
2021/08/22 04:34:53;;;;;;;103.07;45.97;;;;;;;19.87;97.33;101348.06;5100852;28;20132;-61
2021/08/22 04:37:20;;;;;;;83.18;39.70;;;;;;;19.86;96.29;101349.09;5106034;27;20119;-61
2021/08/22 04:39:46;;;;;;;90.82;43.92;;;;;;;19.89;95.87;101351.38;5101384;27;20074;-62
2021/08/22 04:42:13;;;;;;;91.28;42.83;;;;;;;20.01;95.09;101353.50;5106909;28;20146;-61
2021/08/22 04:44:39;;;;;;;94.00;44.22;;;;;;;19.42;99.74;101352.84;5102418;28;20130;-62
2021/08/22 04:47:06;;;;;;;84.57;42.15;;;;;;;19.04;100.00;101347.78;5079033;28;20143;-61
2021/08/22 04:49:33;;;;;;;98.70;45.65;;;;;;;18.99;100.00;101350.19;5109296;28;20059;-60
2021/08/22 04:51:59;;;;;;;83.22;41.13;;;;;;;18.78;100.00;101343.00;5097671;28;20059;-57
2021/08/22 04:54:26;;;;;;;73.85;35.88;;;;;;;18.99;100.00;101344.06;5106381;28;20093;-61
2021/08/22 04:56:53;;;;;;;84.05;40.80;;;;;;;18.97;100.00;101357.53;5097652;28;20546;-56
2021/08/22 04:59:19;;;;;;;89.65;38.38;;;;;;;19.03;100.00;101362.09;5101402;28;20079;-57
2021/08/22 05:01:46;;;;;;;83.32;38.97;;;;;;;18.98;100.00;101363.69;5100409;28;20087;-61
2021/08/22 05:04:12;;;;;;;91.70;41.17;;;;;;;19.02;100.00;101372.94;5104873;28;20047;-61
2021/08/22 05:06:39;;;;;;;82.97;40.42;;;;;;;18.86;100.00;101369.50;5108476;28;20047;-62
2021/08/22 05:09:06;;;;;;;95.63;42.30;;;;;;;18.74;100.00;101370.97;5102065;28;20071;-61
2021/08/22 05:11:34;;;;;;;97.78;43.75;;;;;;;18.54;100.00;101368.03;5101448;28;20130;-60
2021/08/22 05:14:01;;;;;;;98.43;43.58;;;;;;;18.78;100.00;101367.75;5093213;28;20202;-63
2021/08/22 05:16:28;;;;;;;91.85;41.97;;;;;;;18.87;100.00;101371.13;5108004;28;20056;-61
2021/08/22 05:18:55;;;;;;;95.55;42.75;;;;;;;18.99;100.00;101365.31;5098323;28;20071;-61
2021/08/22 05:21:21;;;;;;;102.47;45.70;;;;;;;18.89;100.00;101373.59;5105208;28;20486;-61
2021/08/22 05:23:48;;;;;;;99.43;44.83;;;;;;;18.82;100.00;101375.34;5104557;28;20482;-61
2021/08/22 05:26:14;;;;;;;90.00;41.13;;;;;;;19.02;100.00;101368.44;5098375;28;20857;-61
2021/08/22 05:28:41;;;;;;;95.10;41.13;;;;;;;19.10;100.00;101368.31;5100079;28;20146;-61
2021/08/22 05:31:07;;;;;;;107.03;45.30;;;;;;;19.21;100.00;101368.81;5103590;28;21278;-61
2021/08/22 05:33:34;;;;;;;115.80;47.53;;;;;;;19.28;100.00;101369.69;5084968;28;20160;-59
2021/08/22 05:36:14;;;;;;;121.78;48.35;;;;;;;19.40;100.00;101370.00;5103365;28;20139;-58
2021/08/22 05:38:41;;;;;;;115.22;45.90;;;;;;;19.39;100.00;101371.03;5106450;28;20108;-57
2021/08/22 05:41:07;;;;;;;113.80;47.10;;;;;;;19.35;100.00;101368.75;5103074;27;20175;-60
2021/08/22 05:43:34;;;;;;;116.07;47.10;;;;;;;18.85;100.00;101373.16;5078751;28;20523;-55
2021/08/22 05:46:01;;;;;;;116.68;48.00;;;;;;;18.73;100.00;101371.97;5111281;27;20093;-61
2021/08/22 05:48:27;;;;;;;132.80;51.65;;;;;;;18.97;100.00;101368.16;5100846;27;20100;-61
2021/08/22 05:50:53;;;;;;;110.03;45.53;;;;;;;19.20;100.00;101378.63;5107444;27;20535;-61
2021/08/22 05:53:21;;;;;;;111.43;47.33;;;;;;;19.18;100.00;101375.34;5100930;27;20044;-60
2021/08/22 05:55:48;;;;;;;118.57;46.80;;;;;;;19.33;100.00;101383.25;5107492;27;20357;-61
2021/08/22 05:58:14;;;;;;;117.22;47.80;;;;;;;19.46;100.00;101377.22;5097306;28;20135;-59
2021/08/22 06:00:40;;;;;;;130.15;49.58;;;;;;;19.46;100.00;101380.69;5110520;27;20131;-61
2021/08/22 06:03:07;;;;;;;120.38;46.45;;;;;;;19.61;100.00;101388.59;5109263;27;20043;-61
2021/08/22 06:05:35;;;;;;;126.30;48.33;;;;;;;19.56;100.00;101385.69;5103285;27;20070;-61
2021/08/22 06:08:02;;;;;;;126.43;49.05;;;;;;;19.66;100.00;101393.34;5104909;27;20788;-61
2021/08/22 06:10:28;;;;;;;128.93;48.97;;;;;;;19.56;100.00;101385.69;5077460;27;20094;-61
2021/08/22 06:12:54;;;;;;;122.85;47.20;;;;;;;19.79;100.00;101387.34;5108842;27;20047;-61
2021/08/22 06:15:22;;;;;;;123.05;46.35;;;;;;;19.97;99.00;101393.00;5104290;27;20487;-60
2021/08/22 06:17:48;;;;;;;131.10;50.28;;;;;;;19.33;100.00;101383.25;5089281;28;20430;-61
2021/08/22 06:20:16;;;;;;;123.82;49.42;;;;;;;19.42;100.00;101390.06;5113148;27;20133;-61
2021/08/22 06:22:42;;;;;;;117.80;46.05;;;;;;;19.36;100.00;101398.81;5098464;27;20502;-61
2021/08/22 06:25:12;;;;;;;123.30;48.40;;;;;;;19.13;100.00;101397.19;5107813;27;20054;-61
2021/08/22 06:27:38;;;;;;;110.38;44.22;;;;;;;18.95;100.00;101389.63;5103533;27;20142;-61
2021/08/22 06:30:05;;;;;;;119.78;46.67;;;;;;;18.88;100.00;101385.25;5110192;27;20491;-61
2021/08/22 06:32:33;;;;;;;123.28;47.78;;;;;;;19.33;100.00;101399.22;5101617;27;20142;-61
2021/08/22 06:34:59;;;;;;;100.17;42.60;;;;;;;19.63;100.00;101396.41;5110554;27;20075;-59
2021/08/22 06:37:26;;;;;;;111.22;43.22;;;;;;;19.74;98.64;101390.59;5101901;27;20383;-60
2021/08/22 06:39:52;;;;;;;101.40;42.70;;;;;;;19.81;98.04;101390.63;5103448;27;20364;-61
2021/08/22 06:42:19;;;;;;;108.53;42.28;;;;;;;19.56;99.65;101397.19;5104518;27;20131;-61
2021/08/22 06:44:45;;;;;;;112.35;42.15;;;;;;;19.19;100.00;101395.59;5103475;27;20099;-61
2021/08/22 06:47:12;;;;;;;108.55;43.30;;;;;;;19.03;100.00;101393.16;5107306;27;20531;-61
2021/08/22 06:49:39;;;;;;;110.68;41.63;;;;;;;19.44;100.00;101393.38;5101711;27;20312;-61
2021/08/22 06:52:06;;;;;;;103.30;40.25;;;;;;;19.59;99.13;101405.78;5098515;27;20138;-61
2021/08/22 06:54:32;;;;;;;105.18;42.80;;;;;;;19.74;97.59;101393.25;5107420;27;20082;-61
2021/08/22 06:56:59;;;;;;;107.22;43.78;;;;;;;19.59;100.00;101403.94;5087020;28;20472;-60
2021/08/22 06:59:25;;;;;;;113.07;42.83;;;;;;;19.08;100.00;101396.91;5113833;27;20130;-59
2021/08/22 07:01:52;;;;;;;104.78;41.33;;;;;;;19.20;100.00;101401.75;5097800;27;20135;-61
2021/08/22 07:04:19;;;;;;;95.95;39.50;;;;;;;19.43;100.00;101404.22;5105657;27;20057;-61
2021/08/22 07:06:45;;;;;;;101.55;42.75;;;;;;;19.28;100.00;101409.59;5077079;28;20138;-61
2021/08/22 07:09:12;;;;;;;109.15;42.13;;;;;;;19.39;100.00;101402.97;5109303;27;20134;-61
2021/08/22 07:11:38;;;;;;;107.22;43.72;;;;;;;19.20;100.00;101410.53;5098285;27;20134;-61
2021/08/22 07:14:05;;;;;;;107.80;43.25;;;;;;;19.47;100.00;101408.97;5111261;27;20086;-61
2021/08/22 07:16:31;;;;;;;93.57;39.50;;;;;;;19.54;100.00;101411.66;5107370;27;20723;-60
2021/08/22 07:18:58;;;;;;;103.90;42.80;;;;;;;19.47;100.00;101418.78;5099944;27;20048;-62
2021/08/22 07:21:24;;;;;;;114.35;43.70;;;;;;;19.39;100.00;101414.41;5098780;27;20060;-62
2021/08/22 07:23:51;;;;;;;93.40;41.75;;;;;;;19.09;100.00;101424.31;5099119;27;20541;-61
2021/08/22 07:26:17;;;;;;;112.63;45.80;;;;;;;18.96;100.00;101422.34;5103093;27;20608;-62
2021/08/22 07:28:44;;;;;;;107.70;42.33;;;;;;;18.82;100.00;101421.38;5098356;27;20043;-62
2021/08/22 07:31:10;;;;;;;97.07;43.58;;;;;;;18.82;100.00;101425.84;5105833;27;20044;-60
2021/08/22 07:33:37;;;;;;;100.80;43.70;;;;;;;18.98;100.00;101430.97;5103024;27;20134;-61
2021/08/22 07:36:04;;;;;;;102.63;45.25;;;;;;;18.86;100.00;101429.81;5099296;27;20085;-61
2021/08/22 07:38:30;;;;;;;90.10;40.85;;;;;;;18.92;100.00;101435.19;5108993;27;20461;-61
2021/08/22 07:40:57;;;;;;;103.05;42.25;;;;;;;19.52;99.52;101433.16;5099506;27;20082;-61
2021/08/22 07:43:24;;;;;;;85.93;41.90;;;;;;;19.31;98.58;101431.31;5102186;28;20083;-62
2021/08/22 07:45:50;;;;;;;89.15;41.72;;;;;;;19.68;98.05;101432.06;5095234;27;20055;-62
2021/08/22 07:48:17;;;;;;;84.72;38.30;;;;;;;20.19;92.19;101433.72;5098264;28;20071;-61
2021/08/22 07:50:43;;;;;;;75.30;37.40;;;;;;;19.98;93.21;101431.13;5097310;27;20079;-59
2021/08/22 07:53:10;;;;;;;77.32;36.85;;;;;;;19.90;95.72;101429.41;5103984;27;20372;-62
2021/08/22 07:55:36;;;;;;;88.20;39.85;;;;;;;20.30;94.78;101432.34;5085360;28;20138;-62
2021/08/22 07:58:03;;;;;;;77.68;36.88;;;;;;;20.52;91.25;101431.25;5101403;27;20133;-62
2021/08/22 08:00:29;;;;;;;71.03;35.13;;;;;;;20.88;88.36;101432.03;5103494;27;20083;-62
2021/08/22 08:02:56;;;;;;;71.93;36.45;;;;;;;20.69;89.65;101426.41;5096853;27;20127;-61
2021/08/22 08:05:23;;;;;;;70.55;34.28;;;;;;;20.74;88.15;101433.84;5106001;27;20051;-62
2021/08/22 08:07:50;;;;;;;72.85;36.58;;;;;;;20.59;91.01;101436.63;5098211;27;20518;-62
2021/08/22 08:10:17;;;;;;;83.90;37.70;;;;;;;20.47;91.25;101438.19;5107272;27;20142;-61
2021/08/22 08:12:45;;;;;;;69.43;37.42;;;;;;;20.49;89.45;101438.81;5104412;27;20047;-62
2021/08/22 08:15:11;;;;;;;67.38;37.65;;;;;;;20.82;87.24;101444.31;5093596;27;20475;-62
2021/08/22 08:17:38;;;;;;;79.30;39.17;;;;;;;20.43;88.39;101444.94;5100631;27;20052;-61
2021/08/22 08:20:06;;;;;;;82.45;39.78;;;;;;;20.35;91.26;101452.03;5089972;27;20146;-60
2021/08/22 08:22:32;;;;;;;69.10;39.17;;;;;;;20.20;91.92;101451.31;5099636;27;20139;-61
2021/08/22 08:24:59;;;;;;;74.50;40.30;;;;;;;20.09;93.30;101455.38;5087364;27;20055;-62
2021/08/22 08:27:26;;;;;;;76.03;40.13;;;;;;;20.42;92.45;101440.59;5096611;27;20059;-62
2021/08/22 08:29:52;;;;;;;74.18;37.65;;;;;;;20.89;87.50;101447.00;5087060;27;20050;-61
2021/08/22 08:32:19;;;;;;;74.18;37.38;;;;;;;20.30;92.82;101451.78;5083886;28;20560;-57
2021/08/22 08:34:45;;;;;;;80.13;37.88;;;;;;;20.31;90.95;101444.66;5098451;28;20131;-59
2021/08/22 08:37:12;;;;;;;87.05;37.88;;;;;;;20.40;90.70;101443.44;5086904;28;20474;-61
2021/08/22 08:39:38;;;;;;;77.45;36.58;;;;;;;20.37;90.37;101443.06;5096943;28;20134;-61
2021/08/22 08:42:21;;;;;;;72.05;37.75;;;;;;;20.52;91.16;101438.41;5086168;28;20326;-62
2021/08/22 08:44:48;;;;;;;72.88;37.75;;;;;;;21.05;88.37;101441.31;5092626;28;20683;-62
2021/08/22 08:47:18;;;;;;;69.35;38.30;;;;;;;20.87;87.10;101436.53;5087445;28;20138;-62
2021/08/22 08:49:55;;;;;;;71.32;38.08;;;;;;;20.76;89.39;101447.78;5095472;28;20275;-61
2021/08/22 08:52:33;;;;;;;71.57;36.35;;;;;;;20.50;89.28;101437.78;5098093;28;20093;-62
2021/08/22 08:55:05;;;;;;;;;;;;;;;20.39;89.67;101443.69;5086305;28;20128;-61
2021/08/22 08:57:31;;;;;;;68.78;36.30;;;;;;;21.32;82.47;101446.72;5087832;28;20392;-62
2021/08/22 08:59:58;;;;;;;65.97;34.85;;;;;;;21.08;83.87;101440.91;5086765;28;20079;-62
2021/08/22 09:02:24;;;;;;;63.40;35.35;;;;;;;20.94;85.12;101447.22;5095583;28;20083;-61
2021/08/22 09:04:57;;;;;;;62.97;34.72;;;;;;;21.05;86.64;101440.47;5091441;28;20051;-61
2021/08/22 09:08:16;;;;;;;58.75;33.72;;;;;;;21.30;82.82;101443.44;5095113;28;20619;-62
2021/08/22 09:11:21;;;;;;;56.45;34.78;;;;;;;21.58;80.94;101443.31;5081437;28;20556;-62
2021/08/22 09:14:25;;;;;;;62.35;33.70;;;;;;;21.71;81.04;101445.13;5095923;28;20058;-62
2021/08/22 09:17:04;;;;;;;65.40;34.15;;;;;;;21.51;81.88;101443.28;5089710;27;20143;-62
2021/08/22 09:19:56;;;;;;;63.83;33.70;;;;;;;21.70;80.99;101443.50;5086408;27;20134;-62
2021/08/22 09:23:18;;;;;;;57.78;32.85;;;;;;;22.02;80.37;101441.84;5090305;27;20134;-61
2021/08/22 09:26:23;;;;;;;56.80;31.33;;;;;;;22.08;79.78;101443.69;5098345;27;20070;-61
2021/08/22 09:29:27;;;;;;;55.22;32.85;;;;;;;22.09;79.84;101441.81;5096552;28;20134;-61
2021/08/22 09:32:31;;;;;;;54.35;33.83;;;;;;;21.61;81.33;101448.22;5100567;27;20127;-59
2021/08/22 09:35:26;;;;;;;58.67;34.10;;;;;;;21.14;85.89;101445.44;5098954;27;20158;-62
2021/08/22 09:38:20;;;;;;;60.30;36.28;;;;;;;21.18;84.19;101456.53;5099356;27;20139;-62
2021/08/22 09:40:59;;;;;;;53.70;32.15;;;;;;;21.71;81.48;101445.97;5091312;27;20078;-62
2021/08/22 09:44:03;;;;;;;57.20;33.17;;;;;;;21.12;82.30;101457.34;5100894;27;20108;-61
2021/08/22 09:46:48;;;;;;;54.38;31.88;;;;;;;21.46;83.57;101458.25;5097441;27;20130;-62
2021/08/22 09:49:52;;;;;;;62.78;32.95;;;;;;;22.07;77.73;101457.25;5100386;28;20048;-61
2021/08/22 09:52:56;;;;;;;56.33;33.10;;;;;;;21.70;79.96;101451.53;5094778;27;20082;-60
2021/08/22 09:55:54;;;;;;;57.33;34.35;;;;;;;21.11;83.95;101455.69;5075400;28;20073;-61
2021/08/22 09:58:23;;;;;;;;;;;;;;;20.96;84.58;101458.53;5102342;27;20147;-61
2021/08/22 10:01:12;;;;;;;52.13;31.25;;;;;;;20.99;85.31;101466.09;5101180;27;20435;-61
2021/08/22 10:04:06;;;;;;;52.22;27.98;;;;;;;21.06;84.74;101448.28;5099045;27;20418;-61
2021/08/22 10:06:44;;;;;;;48.85;28.83;;;;;;;21.48;81.78;101461.53;5097269;27;20143;-61
2021/08/22 10:09:55;;;;;;;45.10;28.00;;;;;;;22.18;77.25;101458.47;5082504;28;20043;-60
2021/08/22 10:12:21;;;;;;;43.38;26.33;;;;;;;21.12;83.04;101466.16;5095505;27;20069;-61
2021/08/22 10:14:48;;;;;;;41.85;25.92;;;;;;;21.84;79.72;101457.69;5092946;27;20101;-62
2021/08/22 10:17:21;;;;;;;36.42;23.83;;;;;;;22.33;76.20;101461.78;5103451;27;20090;-62
2021/08/22 10:19:49;;;;;;;44.45;25.77;;;;;;;21.05;83.30;101465.34;5093048;27;20119;-61
2021/08/22 10:22:18;;;;;;;44.03;27.08;;;;;;;20.52;86.11;101460.56;5096744;27;20072;-61
2021/08/22 10:24:57;;;;;;;40.35;24.60;;;;;;;20.37;88.50;101464.38;5094869;27;20075;-61
2021/08/22 10:27:45;;;;;;;42.35;25.23;;;;;;;20.16;90.22;101458.06;5100044;27;20079;-61
2021/08/22 10:30:13;;;;;;;41.97;25.33;;;;;;;20.84;85.94;101460.13;5089314;28;20763;-61
2021/08/22 10:32:58;;;;;;;42.13;25.30;;;;;;;21.09;83.39;101457.72;5092943;27;20047;-61
2021/08/22 10:35:25;;;;;;;41.53;25.42;;;;;;;21.15;82.28;101451.63;5090470;28;20139;-62
2021/08/22 10:37:52;;;;;;;48.07;26.33;;;;;;;20.77;85.80;101451.25;5098324;27;20047;-61
2021/08/22 10:40:25;;;;;;;43.15;24.58;;;;;;;21.91;79.60;101451.31;5099781;27;20759;-60
2021/08/22 10:42:57;;;;;;;38.15;24.10;;;;;;;21.35;82.76;101442.84;5089681;27;20135;-60
2021/08/22 10:45:44;;;;;;;42.00;26.27;;;;;;;20.90;85.81;101446.81;5092787;27;20160;-61
2021/08/22 10:48:32;;;;;;;41.70;24.63;;;;;;;20.82;86.36;101444.31;5091320;27;20175;-62
2021/08/22 10:51:07;;;;;;;40.35;24.05;;;;;;;20.78;87.79;101443.06;5081520;27;20344;-61
2021/08/22 10:53:35;;;;;;;40.30;23.55;;;;;;;20.67;86.58;101441.78;5088426;27;20659;-62
2021/08/22 10:56:20;;;;;;;39.40;23.80;;;;;;;20.80;87.07;101453.53;5099649;28;20051;-62
2021/08/22 10:58:59;;;;;;;35.97;21.60;;;;;;;20.96;86.17;101444.38;5092332;27;20150;-60
2021/08/22 11:01:27;;;;;;;35.47;20.77;;;;;;;21.42;83.89;101447.13;5077123;28;20082;-62
2021/08/22 11:04:11;;;;;;;36.58;21.58;;;;;;;21.44;82.13;101441.63;5093969;27;20063;-61
2021/08/22 11:07:02;;;;;;;34.63;19.65;;;;;;;22.21;77.33;101442.00;5100396;28;20175;-59
2021/08/22 11:09:40;;;;;;;37.20;20.20;;;;;;;22.09;76.06;101440.00;5092132;27;20097;-61
2021/08/22 11:12:25;;;;;;;;;;;;;;;21.91;78.49;101445.13;5092057;27;20055;-61
2021/08/22 11:14:53;;;;;;;41.97;23.95;;;;;;;21.56;80.25;101441.84;5071794;28;20342;-60
2021/08/22 11:17:19;;;;;;;38.13;23.58;;;;;;;21.99;80.39;101436.09;5098539;27;20154;-59
2021/08/22 11:19:46;;;;;;;38.03;23.63;;;;;;;22.15;78.61;101449.03;5101160;27;20040;-62
2021/08/22 11:22:27;;;;;;;39.47;25.77;;;;;;;22.27;76.89;101447.38;5092266;27;20595;-61